Terminal Aerodrome Forecast
Issued by NWS

Home | Current Version | Previous Version | Text Only | Print | Product List | Glossary Off
Versions: 1 2 3 4 5 6 7 8 9 10 11 12 13 14

000
FTUS43 KPAH 312300
TAFCGI
TAF
KCGI 312325Z 0100/0124 VRB02KT P6SM FEW050 SCT100
      TEMPO 0108/0112 3SM BR
     FM011500 06005KT P6SM SCT050=

USA.gov is the U.S. government's official web portal to all federal, state and local government web resources and services.